sensor_id;sensor_type;location;lat;lon;timestamp;P1;durP1;ratioP1;P2;durP2;ratioP2
58760;SDS011;44529;47.464;19.014;2022-09-09T00:02:54;5.25;;;1.85;;
58760;SDS011;44529;47.464;19.014;2022-09-09T00:06:26;1.60;;;1.50;;
58760;SDS011;44529;47.464;19.014;2022-09-09T00:09:39;1.70;;;1.60;;
58760;SDS011;44529;47.464;19.014;2022-09-09T00:16:25;1.62;;;1.52;;
58760;SDS011;44529;47.464;19.014;2022-09-09T00:19:35;1.67;;;1.55;;
58760;SDS011;44529;47.464;19.014;2022-09-09T00:22:47;3.33;;;2.05;;
58760;SDS011;44529;47.464;19.014;2022-09-09T00:26:07;2.65;;;1.80;;
58760;SDS011;44529;47.464;19.014;2022-09-09T00:32:31;2.75;;;1.65;;
58760;SDS011;44529;47.464;19.014;2022-09-09T00:35:38;1.55;;;1.45;;
58760;SDS011;44529;47.464;19.014;2022-09-09T00:38:45;1.40;;;1.30;;
58760;SDS011;44529;47.464;19.014;2022-09-09T00:45:37;1.73;;;1.62;;
58760;SDS011;44529;47.464;19.014;2022-09-09T00:49:15;1.87;;;1.77;;
58760;SDS011;44529;47.464;19.014;2022-09-09T00:52:27;2.00;;;1.80;;
58760;SDS011;44529;47.464;19.014;2022-09-09T00:59:26;1.75;;;1.50;;
58760;SDS011;44529;47.464;19.014;2022-09-09T01:05:43;2.00;;;1.90;;
58760;SDS011;44529;47.464;19.014;2022-09-09T01:08:56;2.05;;;1.58;;
58760;SDS011;44529;47.464;19.014;2022-09-09T01:12:16;1.70;;;1.60;;
58760;SDS011;44529;47.464;19.014;2022-09-09T01:15:24;5.12;;;1.70;;
58760;SDS011;44529;47.464;19.014;2022-09-09T01:18:33;1.50;;;1.40;;
58760;SDS011;44529;47.464;19.014;2022-09-09T01:31:38;1.87;;;1.50;;
58760;SDS011;44529;47.464;19.014;2022-09-09T01:34:43;2.33;;;1.77;;
58760;SDS011;44529;47.464;19.014;2022-09-09T01:37:45;1.67;;;1.58;;
58760;SDS011;44529;47.464;19.014;2022-09-09T01:40:48;2.22;;;1.60;;
58760;SDS011;44529;47.464;19.014;2022-09-09T01:43:52;1.70;;;1.55;;
58760;SDS011;44529;47.464;19.014;2022-09-09T01:46:56;2.92;;;1.75;;
58760;SDS011;44529;47.464;19.014;2022-09-09T01:49:59;1.73;;;1.33;;
58760;SDS011;44529;47.464;19.014;2022-09-09T01:53:03;2.30;;;1.77;;
58760;SDS011;44529;47.464;19.014;2022-09-09T01:56:15;3.62;;;1.90;;
58760;SDS011;44529;47.464;19.014;2022-09-09T02:03:14;1.40;;;1.30;;
58760;SDS011;44529;47.464;19.014;2022-09-09T02:06:36;1.50;;;1.40;;
58760;SDS011;44529;47.464;19.014;2022-09-09T02:09:42;2.67;;;1.40;;
58760;SDS011;44529;47.464;19.014;2022-09-09T02:12:51;1.37;;;1.30;;
58760;SDS011;44529;47.464;19.014;2022-09-09T02:16:04;1.40;;;1.30;;
58760;SDS011;44529;47.464;19.014;2022-09-09T02:19:09;1.25;;;1.25;;
58760;SDS011;44529;47.464;19.014;2022-09-09T02:22:16;1.20;;;1.20;;
58760;SDS011;44529;47.464;19.014;2022-09-09T02:25:21;1.23;;;1.12;;
58760;SDS011;44529;47.464;19.014;2022-09-09T02:28:27;1.37;;;1.30;;
58760;SDS011;44529;47.464;19.014;2022-09-09T02:31:32;2.12;;;2.00;;
58760;SDS011;44529;47.464;19.014;2022-09-09T02:34:40;2.37;;;1.48;;
58760;SDS011;44529;47.464;19.014;2022-09-09T02:37:46;1.60;;;1.50;;
58760;SDS011;44529;47.464;19.014;2022-09-09T02:40:48;1.30;;;1.30;;
58760;SDS011;44529;47.464;19.014;2022-09-09T02:43:51;3.70;;;1.15;;
58760;SDS011;44529;47.464;19.014;2022-09-09T02:50:22;2.05;;;1.30;;
58760;SDS011;44529;47.464;19.014;2022-09-09T02:53:47;1.45;;;1.35;;
58760;SDS011;44529;47.464;19.014;2022-09-09T02:57:06;1.42;;;1.33;;
58760;SDS011;44529;47.464;19.014;2022-09-09T03:00:11;1.98;;;1.75;;
58760;SDS011;44529;47.464;19.014;2022-09-09T03:03:15;1.80;;;1.70;;
58760;SDS011;44529;47.464;19.014;2022-09-09T03:06:18;1.80;;;1.40;;
58760;SDS011;44529;47.464;19.014;2022-09-09T03:09:20;1.48;;;1.48;;
58760;SDS011;44529;47.464;19.014;2022-09-09T03:12:23;1.80;;;1.70;;
58760;SDS011;44529;47.464;19.014;2022-09-09T03:15:26;2.92;;;2.05;;
58760;SDS011;44529;47.464;19.014;2022-09-09T03:18:32;2.28;;;1.90;;
58760;SDS011;44529;47.464;19.014;2022-09-09T03:21:36;1.83;;;1.58;;
58760;SDS011;44529;47.464;19.014;2022-09-09T03:24:38;2.10;;;1.83;;
58760;SDS011;44529;47.464;19.014;2022-09-09T03:27:40;4.50;;;2.00;;
58760;SDS011;44529;47.464;19.014;2022-09-09T03:30:43;1.98;;;1.87;;
58760;SDS011;44529;47.464;19.014;2022-09-09T03:33:46;1.92;;;1.80;;
58760;SDS011;44529;47.464;19.014;2022-09-09T03:36:50;2.80;;;2.08;;
58760;SDS011;44529;47.464;19.014;2022-09-09T03:39:52;3.78;;;1.85;;
58760;SDS011;44529;47.464;19.014;2022-09-09T03:42:56;2.42;;;2.22;;
58760;SDS011;44529;47.464;19.014;2022-09-09T03:45:59;2.47;;;2.28;;
58760;SDS011;44529;47.464;19.014;2022-09-09T03:49:03;3.95;;;2.30;;
58760;SDS011;44529;47.464;19.014;2022-09-09T03:52:06;3.67;;;2.15;;
58760;SDS011;44529;47.464;19.014;2022-09-09T03:55:08;4.28;;;2.00;;
58760;SDS011;44529;47.464;19.014;2022-09-09T03:58:12;2.80;;;2.00;;
58760;SDS011;44529;47.464;19.014;2022-09-09T04:01:18;2.20;;;2.10;;
58760;SDS011;44529;47.464;19.014;2022-09-09T04:04:21;3.72;;;2.03;;
58760;SDS011;44529;47.464;19.014;2022-09-09T04:07:23;3.30;;;2.20;;
58760;SDS011;44529;47.464;19.014;2022-09-09T04:10:26;2.85;;;2.15;;
58760;SDS011;44529;47.464;19.014;2022-09-09T04:13:28;2.65;;;1.98;;
58760;SDS011;44529;47.464;19.014;2022-09-09T04:16:32;2.17;;;1.80;;
58760;SDS011;44529;47.464;19.014;2022-09-09T04:19:36;2.55;;;1.87;;
58760;SDS011;44529;47.464;19.014;2022-09-09T04:22:39;2.22;;;1.42;;
58760;SDS011;44529;47.464;19.014;2022-09-09T04:25:45;2.33;;;1.50;;
58760;SDS011;44529;47.464;19.014;2022-09-09T04:28:49;1.77;;;1.48;;
58760;SDS011;44529;47.464;19.014;2022-09-09T04:31:52;2.47;;;2.28;;
58760;SDS011;44529;47.464;19.014;2022-09-09T04:34:55;2.62;;;2.03;;
58760;SDS011;44529;47.464;19.014;2022-09-09T04:37:57;2.97;;;2.10;;
58760;SDS011;44529;47.464;19.014;2022-09-09T04:41:01;2.30;;;1.92;;
58760;SDS011;44529;47.464;19.014;2022-09-09T04:44:03;3.35;;;2.20;;
58760;SDS011;44529;47.464;19.014;2022-09-09T04:47:06;4.90;;;1.92;;
58760;SDS011;44529;47.464;19.014;2022-09-09T04:50:09;2.92;;;1.98;;
58760;SDS011;44529;47.464;19.014;2022-09-09T04:53:11;4.35;;;1.90;;
58760;SDS011;44529;47.464;19.014;2022-09-09T04:56:14;3.10;;;1.95;;
58760;SDS011;44529;47.464;19.014;2022-09-09T04:59:18;3.70;;;1.98;;
58760;SDS011;44529;47.464;19.014;2022-09-09T05:02:21;1.98;;;1.87;;
58760;SDS011;44529;47.464;19.014;2022-09-09T05:05:24;2.30;;;1.95;;
58760;SDS011;44529;47.464;19.014;2022-09-09T05:08:27;2.35;;;2.10;;
58760;SDS011;44529;47.464;19.014;2022-09-09T05:11:30;4.53;;;2.30;;
58760;SDS011;44529;47.464;19.014;2022-09-09T05:14:34;2.55;;;2.10;;
58760;SDS011;44529;47.464;19.014;2022-09-09T05:17:39;2.58;;;2.37;;
58760;SDS011;44529;47.464;19.014;2022-09-09T05:20:42;2.37;;;2.20;;
58760;SDS011;44529;47.464;19.014;2022-09-09T05:23:45;3.15;;;2.50;;
58760;SDS011;44529;47.464;19.014;2022-09-09T05:26:48;2.20;;;2.10;;
58760;SDS011;44529;47.464;19.014;2022-09-09T05:29:51;2.70;;;2.15;;
58760;SDS011;44529;47.464;19.014;2022-09-09T05:32:55;3.03;;;2.65;;
58760;SDS011;44529;47.464;19.014;2022-09-09T05:35:59;4.65;;;2.28;;
58760;SDS011;44529;47.464;19.014;2022-09-09T05:39:03;5.32;;;2.40;;
58760;SDS011;44529;47.464;19.014;2022-09-09T05:42:06;2.17;;;2.08;;
58760;SDS011;44529;47.464;19.014;2022-09-09T05:45:09;4.87;;;2.25;;
58760;SDS011;44529;47.464;19.014;2022-09-09T05:48:13;4.15;;;2.10;;
58760;SDS011;44529;47.464;19.014;2022-09-09T05:51:22;2.47;;;2.37;;
58760;SDS011;44529;47.464;19.014;2022-09-09T05:54:27;2.85;;;2.10;;
58760;SDS011;44529;47.464;19.014;2022-09-09T05:57:30;2.62;;;2.20;;
58760;SDS011;44529;47.464;19.014;2022-09-09T06:00:32;3.95;;;2.42;;
58760;SDS011;44529;47.464;19.014;2022-09-09T06:03:35;5.62;;;2.25;;
58760;SDS011;44529;47.464;19.014;2022-09-09T06:06:38;3.20;;;2.25;;
58760;SDS011;44529;47.464;19.014;2022-09-09T06:09:42;2.97;;;1.80;;
58760;SDS011;44529;47.464;19.014;2022-09-09T06:12:46;5.22;;;2.30;;
58760;SDS011;44529;47.464;19.014;2022-09-09T06:15:49;2.90;;;2.55;;
58760;SDS011;44529;47.464;19.014;2022-09-09T06:18:53;2.12;;;2.03;;
58760;SDS011;44529;47.464;19.014;2022-09-09T06:21:57;1.85;;;1.75;;
58760;SDS011;44529;47.464;19.014;2022-09-09T06:25:01;2.22;;;2.10;;
58760;SDS011;44529;47.464;19.014;2022-09-09T06:28:03;2.17;;;1.90;;
58760;SDS011;44529;47.464;19.014;2022-09-09T06:31:07;2.65;;;2.10;;
58760;SDS011;44529;47.464;19.014;2022-09-09T06:34:12;3.22;;;2.08;;
58760;SDS011;44529;47.464;19.014;2022-09-09T06:37:15;2.10;;;1.62;;
58760;SDS011;44529;47.464;19.014;2022-09-09T06:40:18;4.25;;;2.10;;
58760;SDS011;44529;47.464;19.014;2022-09-09T06:43:20;4.10;;;2.20;;
58760;SDS011;44529;47.464;19.014;2022-09-09T06:46:25;3.08;;;2.25;;
58760;SDS011;44529;47.464;19.014;2022-09-09T06:49:30;5.22;;;2.20;;
58760;SDS011;44529;47.464;19.014;2022-09-09T06:52:32;2.12;;;1.70;;
58760;SDS011;44529;47.464;19.014;2022-09-09T06:55:35;4.45;;;1.60;;
58760;SDS011;44529;47.464;19.014;2022-09-09T06:58:39;5.25;;;1.98;;
58760;SDS011;44529;47.464;19.014;2022-09-09T07:01:46;2.10;;;1.90;;
58760;SDS011;44529;47.464;19.014;2022-09-09T07:04:53;7.05;;;2.20;;
58760;SDS011;44529;47.464;19.014;2022-09-09T07:07:55;2.60;;;2.40;;
58760;SDS011;44529;47.464;19.014;2022-09-09T07:11:02;2.55;;;1.92;;
58760;SDS011;44529;47.464;19.014;2022-09-09T07:14:14;7.10;;;2.40;;
58760;SDS011;44529;47.464;19.014;2022-09-09T07:17:18;4.93;;;1.83;;
58760;SDS011;44529;47.464;19.014;2022-09-09T07:20:20;6.00;;;2.12;;
58760;SDS011;44529;47.464;19.014;2022-09-09T07:23:23;4.68;;;2.30;;
58760;SDS011;44529;47.464;19.014;2022-09-09T07:26:27;4.10;;;2.20;;
58760;SDS011;44529;47.464;19.014;2022-09-09T07:29:31;2.47;;;2.20;;
58760;SDS011;44529;47.464;19.014;2022-09-09T07:32:34;2.25;;;2.03;;
58760;SDS011;44529;47.464;19.014;2022-09-09T07:35:36;3.25;;;1.92;;
58760;SDS011;44529;47.464;19.014;2022-09-09T07:38:39;2.92;;;1.95;;
58760;SDS011;44529;47.464;19.014;2022-09-09T07:41:46;4.72;;;1.90;;
58760;SDS011;44529;47.464;19.014;2022-09-09T07:44:50;3.60;;;1.77;;
58760;SDS011;44529;47.464;19.014;2022-09-09T07:47:57;3.60;;;1.45;;
58760;SDS011;44529;47.464;19.014;2022-09-09T07:51:07;2.75;;;1.60;;
58760;SDS011;44529;47.464;19.014;2022-09-09T07:54:17;4.85;;;1.87;;
58760;SDS011;44529;47.464;19.014;2022-09-09T07:57:25;7.50;;;1.70;;
58760;SDS011;44529;47.464;19.014;2022-09-09T08:00:28;3.95;;;1.50;;
58760;SDS011;44529;47.464;19.014;2022-09-09T08:03:31;3.42;;;1.62;;
58760;SDS011;44529;47.464;19.014;2022-09-09T08:06:39;4.87;;;1.67;;
58760;SDS011;44529;47.464;19.014;2022-09-09T08:09:43;1.75;;;1.10;;
58760;SDS011;44529;47.464;19.014;2022-09-09T08:12:46;2.37;;;1.40;;
58760;SDS011;44529;47.464;19.014;2022-09-09T08:16:27;2.83;;;1.17;;
58760;SDS011;44529;47.464;19.014;2022-09-09T08:19:32;3.22;;;1.17;;
58760;SDS011;44529;47.464;19.014;2022-09-09T08:22:37;3.37;;;1.20;;
58760;SDS011;44529;47.464;19.014;2022-09-09T08:25:40;1.75;;;1.27;;
58760;SDS011;44529;47.464;19.014;2022-09-09T08:28:43;4.43;;;1.35;;
58760;SDS011;44529;47.464;19.014;2022-09-09T08:31:47;2.28;;;0.95;;
58760;SDS011;44529;47.464;19.014;2022-09-09T08:34:54;1.92;;;1.10;;
58760;SDS011;44529;47.464;19.014;2022-09-09T08:38:02;1.37;;;0.90;;
58760;SDS011;44529;47.464;19.014;2022-09-09T08:51:15;3.15;;;1.10;;
58760;SDS011;44529;47.464;19.014;2022-09-09T08:54:20;2.00;;;1.42;;
58760;SDS011;44529;47.464;19.014;2022-09-09T08:57:43;4.85;;;1.00;;
58760;SDS011;44529;47.464;19.014;2022-09-09T09:08:10;1.70;;;0.85;;
58760;SDS011;44529;47.464;19.014;2022-09-09T09:11:37;12.57;;;1.75;;
58760;SDS011;44529;47.464;19.014;2022-09-09T09:14:41;4.10;;;1.23;;
58760;SDS011;44529;47.464;19.014;2022-09-09T09:17:46;1.05;;;0.70;;
58760;SDS011;44529;47.464;19.014;2022-09-09T09:21:32;0.77;;;0.77;;
58760;SDS011;44529;47.464;19.014;2022-09-09T09:24:34;2.90;;;0.97;;
58760;SDS011;44529;47.464;19.014;2022-09-09T09:28:08;1.42;;;0.77;;
58760;SDS011;44529;47.464;19.014;2022-09-09T09:31:15;0.70;;;0.60;;
58760;SDS011;44529;47.464;19.014;2022-09-09T09:34:17;4.57;;;0.70;;
58760;SDS011;44529;47.464;19.014;2022-09-09T09:37:23;2.10;;;0.85;;
58760;SDS011;44529;47.464;19.014;2022-09-09T09:40:30;1.55;;;0.70;;
58760;SDS011;44529;47.464;19.014;2022-09-09T09:43:36;4.20;;;1.33;;
58760;SDS011;44529;47.464;19.014;2022-09-09T09:46:42;1.83;;;1.10;;
58760;SDS011;44529;47.464;19.014;2022-09-09T09:49:52;0.82;;;0.82;;
58760;SDS011;44529;47.464;19.014;2022-09-09T09:53:02;0.95;;;0.80;;
58760;SDS011;44529;47.464;19.014;2022-09-09T09:56:08;1.73;;;1.00;;
58760;SDS011;44529;47.464;19.014;2022-09-09T09:59:23;1.35;;;0.57;;
58760;SDS011;44529;47.464;19.014;2022-09-09T10:02:41;1.12;;;0.50;;
58760;SDS011;44529;47.464;19.014;2022-09-09T10:05:46;3.12;;;0.80;;
58760;SDS011;44529;47.464;19.014;2022-09-09T10:08:50;2.92;;;0.65;;
58760;SDS011;44529;47.464;19.014;2022-09-09T10:12:14;0.93;;;0.93;;
58760;SDS011;44529;47.464;19.014;2022-09-09T10:15:40;1.60;;;0.30;;
58760;SDS011;44529;47.464;19.014;2022-09-09T10:19:04;1.30;;;0.70;;
58760;SDS011;44529;47.464;19.014;2022-09-09T10:22:14;0.40;;;0.40;;
58760;SDS011;44529;47.464;19.014;2022-09-09T10:25:27;0.43;;;0.43;;
58760;SDS011;44529;47.464;19.014;2022-09-09T10:28:54;0.93;;;0.80;;
58760;SDS011;44529;47.464;19.014;2022-09-09T10:35:44;0.62;;;0.62;;
58760;SDS011;44529;47.464;19.014;2022-09-09T10:42:08;4.60;;;0.77;;
58760;SDS011;44529;47.464;19.014;2022-09-09T10:45:17;0.70;;;0.50;;
58760;SDS011;44529;47.464;19.014;2022-09-09T10:52:09;0.50;;;0.50;;
58760;SDS011;44529;47.464;19.014;2022-09-09T10:55:18;0.52;;;0.52;;
58760;SDS011;44529;47.464;19.014;2022-09-09T11:01:47;1.55;;;0.65;;
58760;SDS011;44529;47.464;19.014;2022-09-09T11:04:53;0.70;;;0.70;;
58760;SDS011;44529;47.464;19.014;2022-09-09T11:08:05;2.72;;;0.60;;
58760;SDS011;44529;47.464;19.014;2022-09-09T11:11:19;0.50;;;0.50;;
58760;SDS011;44529;47.464;19.014;2022-09-09T11:14:44;2.17;;;0.57;;
58760;SDS011;44529;47.464;19.014;2022-09-09T11:17:56;0.50;;;0.50;;
58760;SDS011;44529;47.464;19.014;2022-09-09T11:21:03;1.52;;;0.75;;
58760;SDS011;44529;47.464;19.014;2022-09-09T11:27:33;2.12;;;0.60;;
58760;SDS011;44529;47.464;19.014;2022-09-09T11:34:03;0.60;;;0.60;;
58760;SDS011;44529;47.464;19.014;2022-09-09T11:40:53;1.50;;;0.40;;
58760;SDS011;44529;47.464;19.014;2022-09-09T11:43:57;1.60;;;0.60;;
58760;SDS011;44529;47.464;19.014;2022-09-09T11:47:00;4.45;;;0.90;;
58760;SDS011;44529;47.464;19.014;2022-09-09T11:53:18;1.70;;;0.62;;
58760;SDS011;44529;47.464;19.014;2022-09-09T11:59:49;1.35;;;1.10;;
58760;SDS011;44529;47.464;19.014;2022-09-09T12:02:54;0.85;;;0.85;;
58760;SDS011;44529;47.464;19.014;2022-09-09T12:05:56;2.70;;;0.90;;
58760;SDS011;44529;47.464;19.014;2022-09-09T12:09:06;1.50;;;1.17;;
58760;SDS011;44529;47.464;19.014;2022-09-09T12:18:36;1.15;;;1.00;;
58760;SDS011;44529;47.464;19.014;2022-09-09T12:24:55;2.67;;;1.05;;
58760;SDS011;44529;47.464;19.014;2022-09-09T12:31:38;1.00;;;0.90;;
58760;SDS011;44529;47.464;19.014;2022-09-09T12:34:51;2.10;;;0.98;;
58760;SDS011;44529;47.464;19.014;2022-09-09T12:38:01;1.65;;;0.82;;
58760;SDS011;44529;47.464;19.014;2022-09-09T12:41:06;2.05;;;0.70;;
58760;SDS011;44529;47.464;19.014;2022-09-09T12:44:26;0.75;;;0.65;;
58760;SDS011;44529;47.464;19.014;2022-09-09T12:47:46;1.98;;;0.50;;
58760;SDS011;44529;47.464;19.014;2022-09-09T12:50:52;2.47;;;0.80;;
58760;SDS011;44529;47.464;19.014;2022-09-09T12:53:58;3.15;;;0.75;;
58760;SDS011;44529;47.464;19.014;2022-09-09T12:57:01;0.82;;;0.80;;
58760;SDS011;44529;47.464;19.014;2022-09-09T13:00:11;1.60;;;0.70;;
58760;SDS011;44529;47.464;19.014;2022-09-09T13:03:16;2.33;;;0.88;;
58760;SDS011;44529;47.464;19.014;2022-09-09T13:06:29;1.48;;;0.80;;
58760;SDS011;44529;47.464;19.014;2022-09-09T13:09:32;2.17;;;0.90;;
58760;SDS011;44529;47.464;19.014;2022-09-09T13:12:34;5.40;;;1.58;;
58760;SDS011;44529;47.464;19.014;2022-09-09T13:15:37;0.82;;;0.70;;
58760;SDS011;44529;47.464;19.014;2022-09-09T13:18:40;1.00;;;0.73;;
58760;SDS011;44529;47.464;19.014;2022-09-09T13:21:44;5.25;;;1.10;;
58760;SDS011;44529;47.464;19.014;2022-09-09T13:24:46;1.12;;;0.80;;
58760;SDS011;44529;47.464;19.014;2022-09-09T13:27:56;2.58;;;0.82;;
58760;SDS011;44529;47.464;19.014;2022-09-09T13:31:05;4.62;;;1.00;;
58760;SDS011;44529;47.464;19.014;2022-09-09T13:34:31;0.80;;;0.73;;
58760;SDS011;44529;47.464;19.014;2022-09-09T13:37:36;1.58;;;0.80;;
58760;SDS011;44529;47.464;19.014;2022-09-09T13:40:40;0.60;;;0.60;;
58760;SDS011;44529;47.464;19.014;2022-09-09T13:43:43;1.10;;;0.60;;
58760;SDS011;44529;47.464;19.014;2022-09-09T13:46:47;2.55;;;1.40;;
58760;SDS011;44529;47.464;19.014;2022-09-09T13:49:49;1.00;;;0.70;;
58760;SDS011;44529;47.464;19.014;2022-09-09T13:52:52;1.60;;;1.20;;
58760;SDS011;44529;47.464;19.014;2022-09-09T13:55:56;1.92;;;0.90;;
58760;SDS011;44529;47.464;19.014;2022-09-09T13:59:00;3.58;;;1.40;;
58760;SDS011;44529;47.464;19.014;2022-09-09T14:02:02;1.48;;;0.85;;
58760;SDS011;44529;47.464;19.014;2022-09-09T14:05:04;1.50;;;0.70;;
58760;SDS011;44529;47.464;19.014;2022-09-09T14:08:07;0.50;;;0.50;;
58760;SDS011;44529;47.464;19.014;2022-09-09T14:11:18;3.75;;;0.65;;
58760;SDS011;44529;47.464;19.014;2022-09-09T14:14:21;0.88;;;0.50;;
58760;SDS011;44529;47.464;19.014;2022-09-09T14:17:23;0.75;;;0.70;;
58760;SDS011;44529;47.464;19.014;2022-09-09T14:20:26;2.45;;;0.90;;
58760;SDS011;44529;47.464;19.014;2022-09-09T14:23:29;1.45;;;0.80;;
58760;SDS011;44529;47.464;19.014;2022-09-09T14:26:31;0.88;;;0.70;;
58760;SDS011;44529;47.464;19.014;2022-09-09T14:29:34;1.65;;;1.55;;
58760;SDS011;44529;47.464;19.014;2022-09-09T14:32:36;2.12;;;1.70;;
58760;SDS011;44529;47.464;19.014;2022-09-09T14:35:38;2.62;;;0.90;;
58760;SDS011;44529;47.464;19.014;2022-09-09T14:38:42;2.92;;;0.98;;
58760;SDS011;44529;47.464;19.014;2022-09-09T14:41:45;1.80;;;0.90;;
58760;SDS011;44529;47.464;19.014;2022-09-09T14:44:47;3.67;;;1.00;;
58760;SDS011;44529;47.464;19.014;2022-09-09T14:47:50;3.50;;;0.85;;
58760;SDS011;44529;47.464;19.014;2022-09-09T14:50:53;0.75;;;0.62;;
58760;SDS011;44529;47.464;19.014;2022-09-09T14:53:56;2.37;;;1.20;;
58760;SDS011;44529;47.464;19.014;2022-09-09T14:57:00;4.30;;;1.10;;
58760;SDS011;44529;47.464;19.014;2022-09-09T15:00:03;1.73;;;0.98;;
58760;SDS011;44529;47.464;19.014;2022-09-09T15:03:06;1.60;;;1.00;;
58760;SDS011;44529;47.464;19.014;2022-09-09T15:06:09;1.12;;;0.80;;
58760;SDS011;44529;47.464;19.014;2022-09-09T15:09:13;3.53;;;0.98;;
58760;SDS011;44529;47.464;19.014;2022-09-09T15:12:16;1.95;;;1.20;;
58760;SDS011;44529;47.464;19.014;2022-09-09T15:15:20;1.58;;;1.00;;
58760;SDS011;44529;47.464;19.014;2022-09-09T15:18:23;3.55;;;1.20;;
58760;SDS011;44529;47.464;19.014;2022-09-09T15:21:26;1.60;;;1.10;;
58760;SDS011;44529;47.464;19.014;2022-09-09T15:24:34;1.17;;;1.08;;
58760;SDS011;44529;47.464;19.014;2022-09-09T15:27:36;1.30;;;0.98;;
58760;SDS011;44529;47.464;19.014;2022-09-09T15:30:41;1.62;;;0.88;;
58760;SDS011;44529;47.464;19.014;2022-09-09T15:33:49;2.22;;;0.60;;
58760;SDS011;44529;47.464;19.014;2022-09-09T15:36:53;1.75;;;0.88;;
58760;SDS011;44529;47.464;19.014;2022-09-09T15:39:57;5.72;;;1.12;;
58760;SDS011;44529;47.464;19.014;2022-09-09T15:43:00;1.23;;;1.05;;
58760;SDS011;44529;47.464;19.014;2022-09-09T15:46:09;2.78;;;0.70;;
58760;SDS011;44529;47.464;19.014;2022-09-09T15:49:34;5.05;;;0.70;;
58760;SDS011;44529;47.464;19.014;2022-09-09T15:52:36;2.28;;;0.73;;
58760;SDS011;44529;47.464;19.014;2022-09-09T15:55:38;1.73;;;0.93;;
58760;SDS011;44529;47.464;19.014;2022-09-09T15:58:40;3.30;;;0.90;;
58760;SDS011;44529;47.464;19.014;2022-09-09T16:01:45;1.52;;;0.80;;
58760;SDS011;44529;47.464;19.014;2022-09-09T16:04:48;5.70;;;0.90;;
58760;SDS011;44529;47.464;19.014;2022-09-09T16:07:50;1.85;;;0.82;;
58760;SDS011;44529;47.464;19.014;2022-09-09T16:10:54;2.42;;;0.85;;
58760;SDS011;44529;47.464;19.014;2022-09-09T16:13:56;0.98;;;0.70;;
58760;SDS011;44529;47.464;19.014;2022-09-09T16:16:59;5.37;;;1.10;;
58760;SDS011;44529;47.464;19.014;2022-09-09T16:20:01;2.00;;;0.90;;
58760;SDS011;44529;47.464;19.014;2022-09-09T16:23:04;2.47;;;1.42;;
58760;SDS011;44529;47.464;19.014;2022-09-09T16:26:07;2.40;;;1.10;;
58760;SDS011;44529;47.464;19.014;2022-09-09T16:29:13;2.15;;;1.30;;
58760;SDS011;44529;47.464;19.014;2022-09-09T16:32:16;2.75;;;1.25;;
58760;SDS011;44529;47.464;19.014;2022-09-09T16:35:18;4.05;;;1.23;;
58760;SDS011;44529;47.464;19.014;2022-09-09T16:38:21;3.42;;;1.50;;
58760;SDS011;44529;47.464;19.014;2022-09-09T16:41:25;2.85;;;1.10;;
58760;SDS011;44529;47.464;19.014;2022-09-09T16:44:29;2.83;;;1.67;;
58760;SDS011;44529;47.464;19.014;2022-09-09T16:47:31;1.77;;;1.62;;
58760;SDS011;44529;47.464;19.014;2022-09-09T16:50:34;1.70;;;1.52;;
58760;SDS011;44529;47.464;19.014;2022-09-09T16:53:36;4.47;;;1.67;;
58760;SDS011;44529;47.464;19.014;2022-09-09T16:56:39;3.55;;;1.40;;
58760;SDS011;44529;47.464;19.014;2022-09-09T16:59:43;3.40;;;1.60;;
58760;SDS011;44529;47.464;19.014;2022-09-09T17:02:45;3.42;;;1.62;;
58760;SDS011;44529;47.464;19.014;2022-09-09T17:05:48;10.02;;;1.60;;
58760;SDS011;44529;47.464;19.014;2022-09-09T17:08:57;3.35;;;1.70;;
58760;SDS011;44529;47.464;19.014;2022-09-09T17:12:01;2.20;;;1.23;;
58760;SDS011;44529;47.464;19.014;2022-09-09T17:15:04;3.55;;;1.17;;
58760;SDS011;44529;47.464;19.014;2022-09-09T17:18:07;2.08;;;1.10;;
58760;SDS011;44529;47.464;19.014;2022-09-09T17:21:13;4.72;;;1.40;;
58760;SDS011;44529;47.464;19.014;2022-09-09T17:24:18;3.42;;;1.10;;
58760;SDS011;44529;47.464;19.014;2022-09-09T17:27:20;2.78;;;1.08;;
58760;SDS011;44529;47.464;19.014;2022-09-09T17:30:23;1.08;;;0.85;;
58760;SDS011;44529;47.464;19.014;2022-09-09T17:33:25;3.25;;;1.25;;
58760;SDS011;44529;47.464;19.014;2022-09-09T17:36:30;1.60;;;1.15;;
58760;SDS011;44529;47.464;19.014;2022-09-09T17:39:34;1.33;;;1.00;;
58760;SDS011;44529;47.464;19.014;2022-09-09T17:42:37;1.15;;;1.02;;
58760;SDS011;44529;47.464;19.014;2022-09-09T17:45:39;3.58;;;1.60;;
58760;SDS011;44529;47.464;19.014;2022-09-09T17:48:43;5.07;;;2.28;;
58760;SDS011;44529;47.464;19.014;2022-09-09T17:51:46;2.80;;;1.87;;
58760;SDS011;44529;47.464;19.014;2022-09-09T17:54:48;2.05;;;1.85;;
58760;SDS011;44529;47.464;19.014;2022-09-09T17:57:51;2.25;;;2.05;;
58760;SDS011;44529;47.464;19.014;2022-09-09T18:00:53;3.47;;;2.10;;
58760;SDS011;44529;47.464;19.014;2022-09-09T18:03:58;5.55;;;2.58;;
58760;SDS011;44529;47.464;19.014;2022-09-09T18:07:02;2.50;;;1.83;;
58760;SDS011;44529;47.464;19.014;2022-09-09T18:10:04;4.93;;;2.22;;
58760;SDS011;44529;47.464;19.014;2022-09-09T18:13:07;2.20;;;2.00;;
58760;SDS011;44529;47.464;19.014;2022-09-09T18:16:11;2.30;;;1.98;;
58760;SDS011;44529;47.464;19.014;2022-09-09T18:19:13;5.00;;;2.17;;
58760;SDS011;44529;47.464;19.014;2022-09-09T18:22:18;6.18;;;1.90;;
58760;SDS011;44529;47.464;19.014;2022-09-09T18:25:20;4.22;;;2.10;;
58760;SDS011;44529;47.464;19.014;2022-09-09T18:28:23;3.97;;;2.28;;
58760;SDS011;44529;47.464;19.014;2022-09-09T18:31:27;5.30;;;3.60;;
58760;SDS011;44529;47.464;19.014;2022-09-09T18:34:30;6.60;;;2.10;;
58760;SDS011;44529;47.464;19.014;2022-09-09T18:37:32;3.42;;;2.12;;
58760;SDS011;44529;47.464;19.014;2022-09-09T18:40:35;3.62;;;2.00;;
58760;SDS011;44529;47.464;19.014;2022-09-09T18:43:38;4.80;;;1.98;;
58760;SDS011;44529;47.464;19.014;2022-09-09T18:46:40;4.00;;;2.55;;
58760;SDS011;44529;47.464;19.014;2022-09-09T18:49:43;2.00;;;1.42;;
58760;SDS011;44529;47.464;19.014;2022-09-09T18:52:48;4.28;;;1.50;;
58760;SDS011;44529;47.464;19.014;2022-09-09T18:55:56;3.85;;;1.67;;
58760;SDS011;44529;47.464;19.014;2022-09-09T18:59:00;4.72;;;1.95;;
58760;SDS011;44529;47.464;19.014;2022-09-09T19:02:05;5.22;;;1.92;;
58760;SDS011;44529;47.464;19.014;2022-09-09T19:05:07;4.43;;;1.90;;
58760;SDS011;44529;47.464;19.014;2022-09-09T19:08:09;6.85;;;1.70;;
58760;SDS011;44529;47.464;19.014;2022-09-09T19:11:13;3.90;;;1.60;;
58760;SDS011;44529;47.464;19.014;2022-09-09T19:14:20;4.68;;;1.98;;
58760;SDS011;44529;47.464;19.014;2022-09-09T19:17:22;3.22;;;1.90;;
58760;SDS011;44529;47.464;19.014;2022-09-09T19:20:26;2.62;;;1.80;;
58760;SDS011;44529;47.464;19.014;2022-09-09T19:23:29;5.60;;;2.03;;
58760;SDS011;44529;47.464;19.014;2022-09-09T19:26:33;2.62;;;1.90;;
58760;SDS011;44529;47.464;19.014;2022-09-09T19:29:41;5.10;;;2.00;;
58760;SDS011;44529;47.464;19.014;2022-09-09T19:32:45;3.40;;;2.05;;
58760;SDS011;44529;47.464;19.014;2022-09-09T19:35:56;4.32;;;2.10;;
58760;SDS011;44529;47.464;19.014;2022-09-09T19:39:05;2.80;;;1.95;;
58760;SDS011;44529;47.464;19.014;2022-09-09T19:42:09;5.68;;;2.22;;
58760;SDS011;44529;47.464;19.014;2022-09-09T19:45:11;4.57;;;2.10;;
58760;SDS011;44529;47.464;19.014;2022-09-09T19:48:13;6.70;;;2.20;;
58760;SDS011;44529;47.464;19.014;2022-09-09T19:51:19;3.80;;;2.42;;
58760;SDS011;44529;47.464;19.014;2022-09-09T19:54:23;3.33;;;2.30;;
58760;SDS011;44529;47.464;19.014;2022-09-09T19:57:26;4.62;;;2.50;;
58760;SDS011;44529;47.464;19.014;2022-09-09T20:00:31;4.35;;;2.17;;